createdAt,value
2022-11-20T00:01:52.104Z,20.30
2022-11-20T00:06:56.482Z,20.30
2022-11-20T00:11:59.491Z,20.30
2022-11-20T00:17:02.565Z,20.30
2022-11-20T00:22:06.913Z,20.30
2022-11-20T00:27:09.887Z,20.20
2022-11-20T00:32:12.865Z,20.20
2022-11-20T00:37:17.212Z,20.20
2022-11-20T00:42:20.300Z,20.20
2022-11-20T00:47:23.332Z,20.20
2022-11-20T00:52:27.640Z,20.20
2022-11-20T00:57:30.604Z,20.20
2022-11-20T01:02:33.644Z,20.10
2022-11-20T01:07:38.147Z,20.10
2022-11-20T01:12:41.227Z,20.10
2022-11-20T01:17:44.301Z,20.10
2022-11-20T01:22:48.747Z,20.00
2022-11-20T01:27:52.226Z,20.00
2022-11-20T01:32:56.983Z,20.00
2022-11-20T01:38:01.347Z,20.00
2022-11-20T01:43:24.803Z,20.00
2022-11-20T01:48:32.038Z,20.00
2022-11-20T01:53:38.697Z,19.90
2022-11-20T01:58:48.223Z,19.90
2022-11-20T02:03:52.549Z,20.00
2022-11-20T02:08:57.289Z,19.90
2022-11-20T02:14:01.301Z,19.90
2022-11-20T02:19:08.114Z,19.90
2022-11-20T02:24:16.028Z,19.90
2022-11-20T02:29:25.491Z,19.80
2022-11-20T02:34:28.472Z,19.80
2022-11-20T02:39:32.881Z,19.80
2022-11-20T02:44:35.857Z,19.80
2022-11-20T02:49:38.879Z,19.80
2022-11-20T02:54:43.262Z,19.80
2022-11-20T02:59:46.382Z,19.80
2022-11-20T03:04:49.488Z,19.80
2022-11-20T03:09:53.921Z,19.80
2022-11-20T03:14:56.927Z,19.70
2022-11-20T03:19:59.955Z,19.70
2022-11-20T03:25:04.760Z,19.70
2022-11-20T03:30:09.058Z,19.70
2022-11-20T03:35:12.143Z,19.70
2022-11-20T03:40:16.777Z,19.70
2022-11-20T03:45:20.702Z,19.70
2022-11-20T03:50:23.727Z,19.70
2022-11-20T03:55:28.053Z,19.70
2022-11-20T04:00:31.078Z,19.70
2022-11-20T04:05:35.517Z,19.60
2022-11-20T04:10:39.817Z,19.60
2022-11-20T04:15:42.794Z,19.60
2022-11-20T04:20:45.862Z,19.60
2022-11-20T04:25:50.237Z,19.60
2022-11-20T04:30:53.395Z,19.50
2022-11-20T04:35:56.409Z,19.60
2022-11-20T04:41:02.138Z,19.60
2022-11-20T04:46:05.183Z,19.50
2022-11-20T04:51:08.678Z,19.50
2022-11-20T04:56:14.278Z,19.50
2022-11-20T05:01:19.283Z,19.50
2022-11-20T05:06:24.116Z,19.50
2022-11-20T05:11:30.001Z,19.50
2022-11-20T05:16:33.128Z,19.40
2022-11-20T05:21:36.212Z,19.40
2022-11-20T05:26:40.584Z,19.40
2022-11-20T05:31:43.595Z,19.50
2022-11-20T05:36:46.578Z,19.50
2022-11-20T05:42:11.633Z,19.50
2022-11-20T05:47:14.648Z,19.60
2022-11-20T05:52:17.680Z,19.60
2022-11-20T05:57:22.129Z,19.60
2022-11-20T06:02:25.303Z,19.60
2022-11-20T06:07:28.350Z,19.50
2022-11-20T06:12:33.800Z,19.50
2022-11-20T06:17:36.753Z,19.50
2022-11-20T06:22:39.798Z,19.50
2022-11-20T06:27:44.118Z,19.40
2022-11-20T06:32:47.098Z,19.40
2022-11-20T06:37:50.145Z,19.40
2022-11-20T06:42:55.786Z,19.40
2022-11-20T06:47:59.775Z,19.40
2022-11-20T06:53:04.270Z,19.40
2022-11-20T06:58:08.629Z,19.40
2022-11-20T07:03:13.163Z,19.40
2022-11-20T07:08:16.127Z,19.40
2022-11-20T07:13:20.547Z,19.40
2022-11-20T07:18:23.577Z,19.30
2022-11-20T07:23:26.550Z,19.30
2022-11-20T07:28:30.939Z,19.30
2022-11-20T07:33:34.211Z,19.30
2022-11-20T07:38:37.218Z,19.30
2022-11-20T07:43:41.964Z,19.30
2022-11-20T07:48:44.999Z,19.30
2022-11-20T07:53:47.951Z,19.30
2022-11-20T07:58:52.237Z,19.30
2022-11-20T08:03:55.206Z,19.30
2022-11-20T08:08:58.269Z,19.30
2022-11-20T08:14:14.714Z,19.30
2022-11-20T08:19:19.043Z,19.30
2022-11-20T08:24:22.104Z,19.30
2022-11-20T08:29:26.492Z,19.30
2022-11-20T08:34:29.502Z,19.30
2022-11-20T08:39:32.505Z,19.30
2022-11-20T08:44:36.849Z,19.30
2022-11-20T08:49:39.825Z,19.30
2022-11-20T08:54:42.793Z,19.30
2022-11-20T09:05:10.376Z,19.30
2022-11-20T09:10:29.082Z,19.40
2022-11-20T09:15:33.862Z,19.40
2022-11-20T09:20:37.024Z,19.30
2022-11-20T09:25:40.078Z,19.40
2022-11-20T09:30:44.428Z,19.40
2022-11-20T09:35:47.462Z,19.40
2022-11-20T09:40:59.074Z,19.40
2022-11-20T09:46:11.293Z,19.40
2022-11-20T09:51:25.597Z,19.40
2022-11-20T09:56:30.249Z,19.40
2022-11-20T10:01:39.244Z,19.40
2022-11-20T10:06:49.344Z,19.40
2022-11-20T10:12:08.435Z,19.40
2022-11-20T10:17:25.811Z,19.40
2022-11-20T10:22:41.378Z,19.40
2022-11-20T10:28:11.745Z,19.40
2022-11-20T10:33:21.545Z,19.40
2022-11-20T10:38:33.348Z,19.40
2022-11-20T10:43:37.110Z,19.40
2022-11-20T10:48:45.187Z,19.40
2022-11-20T10:53:57.759Z,19.40
2022-11-20T10:59:25.811Z,19.40
2022-11-20T11:04:45.302Z,19.40
2022-11-20T11:09:50.767Z,19.40
2022-11-20T11:14:55.725Z,19.40
2022-11-20T11:20:08.742Z,19.40
2022-11-20T11:25:31.520Z,19.40
2022-11-20T11:30:44.380Z,19.30
2022-11-20T11:35:51.767Z,19.30
2022-11-20T11:40:57.427Z,19.30
2022-11-20T11:46:01.234Z,19.30
2022-11-20T11:51:11.282Z,19.30
2022-11-20T11:56:16.857Z,19.30
2022-11-20T12:01:32.502Z,19.20
2022-11-20T12:06:40.123Z,19.30
2022-11-20T12:11:48.808Z,19.20
2022-11-20T12:16:53.732Z,19.20
2022-11-20T12:22:07.237Z,19.30
2022-11-20T12:27:29.785Z,19.30
2022-11-20T12:32:56.776Z,19.20
2022-11-20T12:38:17.393Z,19.30
2022-11-20T12:43:40.962Z,19.20
2022-11-20T12:49:20.751Z,19.30
2022-11-20T12:54:50.324Z,19.20
2022-11-20T13:00:05.792Z,19.20
2022-11-20T13:05:20.892Z,19.20
2022-11-20T13:10:37.445Z,19.20
2022-11-20T13:15:50.374Z,19.20
2022-11-20T13:20:54.574Z,19.30
2022-11-20T13:26:15.751Z,19.30
2022-11-20T13:31:34.385Z,19.30
2022-11-20T13:36:37.738Z,19.30
2022-11-20T13:41:42.367Z,19.30
2022-11-20T13:46:47.387Z,19.30
2022-11-20T13:51:53.195Z,19.30
2022-11-20T13:57:07.590Z,19.30
2022-11-20T14:02:15.121Z,19.30
2022-11-20T14:07:19.940Z,19.30
2022-11-20T14:12:29.359Z,19.20
2022-11-20T14:17:34.437Z,19.20
2022-11-20T14:22:37.821Z,19.20
2022-11-20T14:27:44.081Z,19.20
2022-11-20T14:32:48.321Z,19.20
2022-11-20T14:37:51.517Z,19.20
2022-11-20T14:42:56.023Z,19.20
2022-11-20T14:48:01.709Z,19.20
2022-11-20T14:53:04.755Z,19.20
2022-11-20T14:58:23.624Z,19.20
2022-11-20T15:03:34.019Z,19.10
2022-11-20T15:08:37.304Z,19.10
2022-11-20T15:13:41.857Z,19.10
2022-11-20T15:18:45.369Z,19.10
2022-11-20T15:23:48.912Z,19.10
2022-11-20T15:28:53.759Z,19.10
2022-11-20T15:33:56.843Z,19.10
2022-11-20T15:38:59.820Z,19.10
2022-11-20T15:44:04.675Z,19.10
2022-11-20T15:49:11.109Z,19.10
2022-11-20T15:54:15.999Z,19.10
2022-11-20T15:59:20.520Z,19.10
2022-11-20T16:04:23.723Z,19.10
2022-11-20T16:09:26.904Z,19.10
2022-11-20T16:14:48.789Z,19.00
2022-11-20T16:19:51.815Z,19.00
2022-11-20T16:24:54.811Z,19.00
2022-11-20T16:29:59.439Z,19.00
2022-11-20T16:35:03.281Z,18.90
2022-11-20T16:40:07.209Z,18.90
2022-11-20T16:45:12.813Z,19.00
2022-11-20T16:50:15.839Z,19.10
2022-11-20T16:55:19.009Z,19.10
2022-11-20T17:00:23.444Z,19.30
2022-11-20T17:05:26.510Z,19.40
2022-11-20T17:10:29.637Z,19.50
2022-11-20T17:15:34.117Z,19.50
2022-11-20T17:20:37.080Z,19.50
2022-11-20T17:25:40.066Z,19.50
2022-11-20T17:30:44.365Z,19.70
2022-11-20T17:35:47.377Z,19.80
2022-11-20T17:40:50.374Z,19.90
2022-11-20T17:45:54.869Z,20.00
2022-11-20T17:51:01.404Z,20.10
2022-11-20T17:56:23.173Z,20.20
2022-11-20T18:01:27.694Z,20.20
2022-11-20T18:06:31.545Z,20.20
2022-11-20T18:11:36.723Z,20.20
2022-11-20T18:16:43.151Z,20.30
2022-11-20T18:21:46.190Z,20.40
2022-11-20T18:26:49.394Z,20.50
2022-11-20T18:31:54.000Z,20.60
2022-11-20T18:36:57.080Z,20.60
2022-11-20T18:42:17.407Z,20.70
2022-11-20T18:47:24.462Z,20.80
2022-11-20T18:52:29.338Z,20.80
2022-11-20T18:57:33.226Z,20.80
2022-11-20T19:02:42.326Z,20.80
2022-11-20T19:07:46.177Z,20.80
2022-11-20T19:12:49.191Z,20.90
2022-11-20T19:17:53.629Z,21.00
2022-11-20T19:22:56.679Z,21.10
2022-11-20T19:28:01.181Z,21.20
2022-11-20T19:33:05.668Z,21.30
2022-11-20T19:38:08.718Z,21.30
2022-11-20T19:43:11.787Z,21.50
2022-11-20T19:48:16.185Z,21.90
2022-11-20T19:53:19.821Z,22.30
2022-11-20T19:58:22.844Z,22.70
2022-11-20T20:03:27.176Z,23.00
2022-11-20T20:08:30.378Z,23.50
2022-11-20T20:13:33.414Z,24.00
2022-11-20T20:18:38.057Z,24.40
2022-11-20T20:23:42.331Z,24.60
2022-11-20T20:28:45.408Z,24.80
2022-11-20T20:33:50.029Z,24.90
2022-11-20T20:38:54.700Z,25.00
2022-11-20T20:44:15.267Z,25.10
2022-11-20T20:49:19.986Z,25.20
2022-11-20T20:54:23.031Z,25.20
2022-11-20T20:59:26.291Z,25.20
2022-11-20T21:04:30.912Z,25.30
2022-11-20T21:09:33.890Z,25.30
2022-11-20T21:14:37.527Z,25.30
2022-11-20T21:19:41.894Z,25.30
2022-11-20T21:24:44.910Z,25.20
2022-11-20T21:29:47.971Z,25.10
2022-11-20T21:34:52.296Z,24.90
2022-11-20T21:39:55.262Z,24.80
2022-11-20T21:44:58.231Z,25.00
2022-11-20T21:50:02.595Z,25.10
2022-11-20T21:55:06.219Z,25.10
2022-11-20T22:00:12.986Z,25.20
2022-11-20T22:05:17.593Z,25.20
2022-11-20T22:10:20.592Z,25.10
2022-11-20T22:15:45.862Z,25.10
2022-11-20T22:20:47.983Z,25.10
2022-11-20T22:25:50.916Z,25.00
2022-11-20T22:30:53.920Z,24.90
2022-11-20T22:36:02.407Z,24.80
2022-11-20T22:41:06.481Z,24.80
2022-11-20T22:46:11.172Z,24.70
2022-11-20T22:51:17.762Z,24.50
2022-11-20T22:56:21.441Z,24.40
2022-11-20T23:01:25.978Z,24.40
2022-11-20T23:06:34.070Z,24.30
2022-11-20T23:11:37.746Z,24.20
2022-11-20T23:16:41.220Z,24.10
2022-11-20T23:21:45.709Z,24.00
2022-11-20T23:26:48.776Z,23.90
2022-11-20T23:31:51.791Z,23.80
2022-11-20T23:36:56.117Z,23.80
2022-11-20T23:41:59.133Z,23.70
2022-11-20T23:47:02.144Z,23.60
2022-11-20T23:52:06.569Z,23.50
2022-11-20T23:57:09.509Z,23.30
